createdAt,value
2023-10-18T00:03:10.177Z,22.80
2023-10-18T00:07:18.570Z,29.50
2023-10-18T00:11:28.173Z,26.90
2023-10-18T00:15:35.951Z,31.10
2023-10-18T00:19:45.408Z,25.20
2023-10-18T00:23:53.861Z,22.10
2023-10-18T00:28:02.157Z,23.20
2023-10-18T00:32:12.441Z,21.60
2023-10-18T00:36:20.067Z,23.70
2023-10-18T00:40:38.945Z,23.10
2023-10-18T00:44:56.552Z,25.40
2023-10-18T00:49:04.270Z,23.50
2023-10-18T00:53:13.061Z,21.50
2023-10-18T00:57:32.459Z,21.50
2023-10-18T01:01:59.602Z,24.80
2023-10-18T01:06:13.634Z,23.90
2023-10-18T01:10:25.295Z,26.10
2023-10-18T01:14:33.696Z,22.30
2023-10-18T01:18:44.792Z,24.40
2023-10-18T01:22:52.969Z,27.60
2023-10-18T01:27:01.220Z,25.20
2023-10-18T01:31:10.511Z,24.90
2023-10-18T01:35:19.046Z,21.70
2023-10-18T01:39:31.199Z,24.10
2023-10-18T01:43:39.846Z,24.70
2023-10-18T01:47:54.038Z,28.10
2023-10-18T01:52:05.922Z,25.90
2023-10-18T01:56:15.518Z,24.90
2023-10-18T02:00:26.780Z,24.50
2023-10-18T02:04:52.204Z,23.60
2023-10-18T02:09:02.159Z,21.90
2023-10-18T02:13:12.575Z,23.20
2023-10-18T02:17:20.927Z,22.70
2023-10-18T02:21:29.122Z,22.50
2023-10-18T02:25:44.655Z,21.40
2023-10-18T02:29:53.522Z,26.30
2023-10-18T02:34:04.523Z,25.30
2023-10-18T02:38:16.475Z,23.50
2023-10-18T02:42:26.078Z,22.60
2023-10-18T02:46:34.658Z,22.00
2023-10-18T02:50:43.406Z,23.20
2023-10-18T02:54:51.503Z,23.00
2023-10-18T02:59:08.573Z,20.80
2023-10-18T03:03:16.403Z,22.40
2023-10-18T03:07:24.630Z,29.20
2023-10-18T03:11:35.239Z,24.30
2023-10-18T03:16:01.498Z,25.40
2023-10-18T03:20:21.376Z,23.90
2023-10-18T03:24:30.337Z,20.30
2023-10-18T03:28:42.425Z,22.40
2023-10-18T03:32:51.990Z,24.70
2023-10-18T03:37:00.882Z,22.50
2023-10-18T03:41:12.446Z,26.40
2023-10-18T03:45:22.949Z,25.20
2023-10-18T03:49:35.048Z,23.10
2023-10-18T03:53:43.153Z,25.50
2023-10-18T03:57:55.928Z,21.50
2023-10-18T04:02:08.721Z,21.20
2023-10-18T04:06:24.716Z,22.60
2023-10-18T04:10:37.189Z,22.90
2023-10-18T04:14:53.926Z,28.80
2023-10-18T04:19:03.786Z,31.10
2023-10-18T04:23:15.986Z,23.40
2023-10-18T04:27:23.632Z,25.10
2023-10-18T04:31:31.742Z,19.80
2023-10-18T04:35:46.162Z,22.40
2023-10-18T04:39:54.948Z,24.50
2023-10-18T04:44:07.041Z,24.80
2023-10-18T04:48:18.117Z,25.60
2023-10-18T04:52:41.486Z,28.60
2023-10-18T04:56:57.847Z,26.80
2023-10-18T05:01:09.131Z,24.90
2023-10-18T05:05:19.127Z,29.70
2023-10-18T05:09:36.213Z,24.40
2023-10-18T05:13:50.134Z,24.70
2023-10-18T05:18:06.777Z,22.70
2023-10-18T05:22:21.400Z,28.60
2023-10-18T05:26:34.610Z,32.10
2023-10-18T05:31:00.875Z,29.40
2023-10-18T05:35:23.316Z,34.50
2023-10-18T05:39:37.882Z,37.20
2023-10-18T05:43:47.589Z,39.30
2023-10-18T05:47:56.539Z,36.60
2023-10-18T05:56:54.500Z,27.90
2023-10-18T06:01:05.937Z,26.20
2023-10-18T06:05:14.735Z,22.50
2023-10-18T06:09:29.252Z,20.20
2023-10-18T06:13:39.062Z,21.50
2023-10-18T06:17:54.691Z,25.20
2023-10-18T06:22:14.793Z,31.70
2023-10-18T06:26:31.964Z,50.30
2023-10-18T06:30:42.888Z,42.80
2023-10-18T06:34:57.240Z,35.50
2023-10-18T06:39:06.008Z,28.10
2023-10-18T06:43:15.764Z,32.80
2023-10-18T06:47:31.818Z,46.30
2023-10-18T06:51:42.772Z,41.40
2023-10-18T06:56:02.036Z,49.70
2023-10-18T07:00:15.981Z,43.70
2023-10-18T07:04:29.291Z,38.40
2023-10-18T07:08:41.616Z,33.20
2023-10-18T07:12:53.793Z,35.60
2023-10-18T07:17:05.806Z,30.20
2023-10-18T07:21:20.403Z,38.00
2023-10-18T07:25:33.737Z,37.80
2023-10-18T07:29:48.040Z,27.80
2023-10-18T07:33:56.185Z,27.40
2023-10-18T07:38:03.797Z,29.80
2023-10-18T07:42:15.178Z,25.60
2023-10-18T07:46:25.994Z,30.80
2023-10-18T07:50:43.222Z,27.60
2023-10-18T07:54:51.908Z,39.00
2023-10-18T07:59:29.368Z,23.00
2023-10-18T08:03:39.918Z,27.30
2023-10-18T08:07:50.634Z,24.40
2023-10-18T08:11:58.302Z,28.10
2023-10-18T08:16:11.533Z,25.50
2023-10-18T08:20:40.590Z,22.60
2023-10-18T08:24:51.985Z,19.40
2023-10-18T08:29:01.108Z,20.50
2023-10-18T08:33:09.206Z,21.40
2023-10-18T08:37:17.502Z,21.20
2023-10-18T08:41:27.870Z,21.90
2023-10-18T08:45:38.214Z,28.80
2023-10-18T08:49:51.762Z,23.40
2023-10-18T08:54:02.600Z,20.50
2023-10-18T08:58:10.936Z,23.10
2023-10-18T09:02:24.076Z,22.40
2023-10-18T09:06:33.385Z,17.40
2023-10-18T09:10:48.825Z,19.80
2023-10-18T09:14:56.925Z,16.90
2023-10-18T09:19:04.744Z,16.20
2023-10-18T09:23:21.684Z,15.60
2023-10-18T09:27:31.000Z,16.10
2023-10-18T09:31:38.872Z,15.40
2023-10-18T09:35:49.308Z,15.10
2023-10-18T09:39:57.900Z,16.80
2023-10-18T09:44:05.372Z,19.40
2023-10-18T09:48:13.318Z,12.10
2023-10-18T09:52:20.957Z,12.00
2023-10-18T09:56:34.930Z,13.50
2023-10-18T10:00:44.169Z,11.50
2023-10-18T10:04:56.848Z,11.30
2023-10-18T10:09:13.382Z,12.40
2023-10-18T10:13:26.772Z,13.80
2023-10-18T10:17:37.760Z,12.00
2023-10-18T10:21:48.464Z,13.80
2023-10-18T10:26:33.037Z,11.60
2023-10-18T10:30:46.007Z,11.40
2023-10-18T10:34:59.480Z,12.00
2023-10-18T10:39:14.213Z,14.40
2023-10-18T10:43:22.045Z,13.10
2023-10-18T10:47:34.026Z,11.00
2023-10-18T10:51:51.128Z,9.60
2023-10-18T10:55:58.841Z,9.20
2023-10-18T11:00:23.921Z,12.40
2023-10-18T11:05:05.353Z,8.60
2023-10-18T11:09:16.997Z,8.90
2023-10-18T11:13:26.538Z,8.30
2023-10-18T11:17:37.066Z,8.30
2023-10-18T11:21:46.079Z,11.50
2023-10-18T11:25:58.401Z,9.70
2023-10-18T11:30:17.101Z,11.20
2023-10-18T11:34:27.869Z,10.50
2023-10-18T11:38:35.772Z,7.90
2023-10-18T11:42:57.046Z,10.30
2023-10-18T11:47:20.305Z,9.30
2023-10-18T11:51:28.380Z,10.90
2023-10-18T11:55:38.549Z,8.80
2023-10-18T11:59:57.418Z,9.90
2023-10-18T12:04:09.579Z,11.10
2023-10-18T12:08:19.375Z,10.70
2023-10-18T12:12:26.870Z,8.40
2023-10-18T12:16:35.453Z,14.60
2023-10-18T12:20:45.880Z,8.90
2023-10-18T12:24:53.796Z,11.30
2023-10-18T12:29:04.858Z,8.00
2023-10-18T12:33:20.724Z,10.70
2023-10-18T12:37:34.692Z,8.60
2023-10-18T12:41:43.003Z,9.40
2023-10-18T12:45:53.293Z,9.00
2023-10-18T12:50:01.345Z,8.60
2023-10-18T12:54:10.731Z,8.40
2023-10-18T12:58:21.605Z,8.20
2023-10-18T13:02:43.744Z,10.00
2023-10-18T13:06:52.343Z,8.70
2023-10-18T13:11:22.259Z,8.90
2023-10-18T13:15:30.048Z,9.20
2023-10-18T13:19:43.156Z,8.60
2023-10-18T13:23:52.503Z,7.90
2023-10-18T13:28:06.883Z,9.80
2023-10-18T13:32:15.525Z,8.00
2023-10-18T13:36:24.292Z,9.80
2023-10-18T13:40:33.158Z,8.90
2023-10-18T13:44:42.661Z,10.40
2023-10-18T13:48:52.509Z,8.20
2023-10-18T13:53:00.756Z,8.60
2023-10-18T13:57:08.896Z,8.20
2023-10-18T14:01:23.861Z,7.40
2023-10-18T14:05:33.418Z,10.20
2023-10-18T14:09:44.944Z,11.10
2023-10-18T14:13:56.592Z,8.80
2023-10-18T14:18:04.593Z,8.50
2023-10-18T14:22:13.987Z,9.80
2023-10-18T14:26:26.096Z,8.90
2023-10-18T14:30:37.444Z,8.30
2023-10-18T14:34:45.160Z,9.00
2023-10-18T14:38:52.856Z,10.80
2023-10-18T14:43:00.905Z,7.70
2023-10-18T14:47:09.507Z,8.70
2023-10-18T14:51:17.224Z,8.60
2023-10-18T14:55:25.608Z,10.20
2023-10-18T14:59:34.986Z,9.80
2023-10-18T15:03:43.217Z,10.40
2023-10-18T15:07:51.011Z,12.80
2023-10-18T15:11:59.366Z,9.60
2023-10-18T15:16:11.513Z,12.00
2023-10-18T15:20:19.671Z,11.90
2023-10-18T15:24:28.141Z,10.30
2023-10-18T15:28:36.703Z,12.80
2023-10-18T15:32:46.591Z,9.70
2023-10-18T15:36:55.666Z,12.20
2023-10-18T15:41:11.438Z,11.00
2023-10-18T15:45:21.359Z,10.10
2023-10-18T15:49:30.503Z,10.70
2023-10-18T15:53:53.153Z,12.20
2023-10-18T15:58:06.062Z,17.40
2023-10-18T16:02:14.225Z,12.70
2023-10-18T16:06:23.118Z,12.60
2023-10-18T16:10:33.741Z,15.50
2023-10-18T16:14:43.184Z,15.10
2023-10-18T16:18:53.574Z,12.60
2023-10-18T16:23:04.652Z,13.40
2023-10-18T16:27:12.468Z,13.10
2023-10-18T16:31:23.116Z,11.50
2023-10-18T16:35:32.609Z,15.10
2023-10-18T16:39:41.088Z,17.30
2023-10-18T16:43:51.723Z,14.40
2023-10-18T16:48:02.175Z,15.80
2023-10-18T16:52:10.540Z,12.70
2023-10-18T16:56:18.688Z,14.20
2023-10-18T17:00:26.415Z,16.00
2023-10-18T17:04:34.153Z,12.30
2023-10-18T17:08:42.133Z,15.80
2023-10-18T17:12:51.393Z,17.00
2023-10-18T17:17:00.294Z,15.70
2023-10-18T17:25:21.832Z,16.10
2023-10-18T17:29:31.018Z,16.60
2023-10-18T17:33:39.013Z,18.90
2023-10-18T17:37:49.237Z,15.50
2023-10-18T17:41:57.761Z,17.00
2023-10-18T17:46:06.295Z,17.10
2023-10-18T17:50:18.953Z,15.00
2023-10-18T17:54:27.026Z,14.80
2023-10-18T17:58:39.096Z,15.00
2023-10-18T18:02:46.576Z,16.70
2023-10-18T18:06:55.953Z,18.10
2023-10-18T18:11:03.602Z,21.40
2023-10-18T18:15:14.440Z,16.10
2023-10-18T18:19:23.506Z,20.80
2023-10-18T18:23:31.527Z,18.10
2023-10-18T18:27:39.474Z,17.30
2023-10-18T18:31:48.675Z,18.70
2023-10-18T18:35:56.981Z,19.70
2023-10-18T18:40:08.896Z,17.70
2023-10-18T18:44:16.895Z,17.40
2023-10-18T18:48:25.322Z,17.40
2023-10-18T18:52:33.439Z,18.70
2023-10-18T18:56:41.910Z,46.70
2023-10-18T19:00:51.369Z,66.50
2023-10-18T19:04:59.049Z,59.90
2023-10-18T19:09:08.992Z,53.10
2023-10-18T19:13:17.261Z,46.30
2023-10-18T19:17:25.019Z,30.00
2023-10-18T19:21:32.896Z,27.70
2023-10-18T19:25:43.082Z,23.10
2023-10-18T19:29:51.055Z,18.70
2023-10-18T19:33:58.533Z,21.00
2023-10-18T19:38:06.548Z,23.20
2023-10-18T19:42:15.074Z,22.60
2023-10-18T19:46:23.527Z,23.20
2023-10-18T19:50:31.976Z,24.50
2023-10-18T19:54:39.638Z,28.30
2023-10-18T19:58:47.825Z,29.80
2023-10-18T20:02:55.640Z,29.30
2023-10-18T20:07:03.656Z,27.10
2023-10-18T20:11:12.489Z,24.00
2023-10-18T20:15:21.455Z,27.30
2023-10-18T20:19:29.762Z,27.50
2023-10-18T20:23:38.133Z,31.70
2023-10-18T20:27:46.008Z,35.30
2023-10-18T20:31:54.157Z,35.20
2023-10-18T20:36:02.246Z,31.00
2023-10-18T20:40:12.633Z,29.20
2023-10-18T20:44:22.117Z,31.30
2023-10-18T20:48:30.572Z,30.00
2023-10-18T20:52:42.558Z,33.20
2023-10-18T20:57:10.928Z,29.30
2023-10-18T21:01:23.854Z,31.70
2023-10-18T21:05:37.026Z,33.10
2023-10-18T21:09:46.210Z,26.80
2023-10-18T21:13:54.570Z,32.60
2023-10-18T21:18:02.680Z,33.50
2023-10-18T21:22:12.988Z,33.70
2023-10-18T21:26:21.161Z,33.40
2023-10-18T21:30:28.774Z,32.50
2023-10-18T21:34:37.136Z,33.80
2023-10-18T21:38:45.932Z,33.40
2023-10-18T21:42:53.901Z,39.80
2023-10-18T21:47:02.079Z,35.40
2023-10-18T21:51:13.550Z,32.50
2023-10-18T21:55:21.877Z,33.70
2023-10-18T21:59:32.195Z,37.20
2023-10-18T22:03:45.160Z,36.00
2023-10-18T22:07:54.216Z,35.20
2023-10-18T22:12:04.831Z,34.20
2023-10-18T22:16:24.972Z,31.80
2023-10-18T22:20:39.345Z,33.50
2023-10-18T22:24:49.533Z,37.20
2023-10-18T22:28:58.923Z,37.60
2023-10-18T22:33:09.407Z,30.50
2023-10-18T22:37:17.581Z,31.40
2023-10-18T22:41:33.636Z,33.80
2023-10-18T22:45:53.136Z,31.90
2023-10-18T22:50:08.126Z,36.10
2023-10-18T22:54:16.319Z,38.50
2023-10-18T22:58:27.452Z,36.40
2023-10-18T23:02:40.457Z,29.20
2023-10-18T23:06:50.542Z,31.30
2023-10-18T23:11:03.171Z,30.50
2023-10-18T23:15:21.370Z,29.60
2023-10-18T23:19:41.076Z,35.30
2023-10-18T23:24:07.256Z,31.20
2023-10-18T23:28:20.422Z,28.30
2023-10-18T23:32:53.456Z,34.00
2023-10-18T23:37:13.919Z,31.20
2023-10-18T23:41:31.040Z,29.50
2023-10-18T23:45:42.238Z,27.70
2023-10-18T23:50:00.632Z,33.60
2023-10-18T23:54:09.242Z,35.50
2023-10-18T23:58:17.080Z,30.00
